Time;durP1;ratioP1;P1;durP2;ratioP2;P2;SDS_P1;SDS_P2;PMS_P1;PMS_P2;Temp;Humidity;BMP_temperature;BMP_pressure;BME280_temperature;BME280_humidity;BME280_pressure;Samples;Min_cycle;Max_cycle;Signal;HPM_P1;HPM_P2
2021/07/03 00:05:23;;;;;;;;;8.00;8.00;;;;;;;;8912872;40;10522;-57
2021/07/03 00:11:25;;;;;;;;;5.50;5.50;;;;;;;;8921705;40;10491;-57
2021/07/03 00:17:27;;;;;;;;;8.25;7.00;;;;;;;;8922904;40;10497;-58
2021/07/03 00:23:30;;;;;;;;;5.00;3.75;;;;;;;;8921161;40;10654;-57
2021/07/03 00:29:32;;;;;;;;;5.00;4.00;;;;;;;;8922365;39;10509;-55
2021/07/03 00:35:34;;;;;;;;;5.50;5.50;;;;;;;;8924568;40;10529;-56
2021/07/03 00:41:36;;;;;;;;;2.75;2.75;;;;;;;;8924969;40;10501;-57
2021/07/03 00:47:39;;;;;;;;;4.33;4.33;;;;;;;;8915704;39;10492;-57
2021/07/03 00:53:43;;;;;;;;;6.75;5.50;;;;;;;;8916061;40;10642;-56
2021/07/03 00:59:47;;;;;;;;;4.00;4.00;;;;;;;;8915529;40;10514;-56
2021/07/03 01:05:54;;;;;;;;;5.00;4.00;;;;;;;;8915154;40;10460;-57
2021/07/03 01:11:59;;;;;;;;;6.25;6.25;;;;;;;;8924802;40;11041;-56
2021/07/03 01:18:03;;;;;;;;;5.25;5.25;;;;;;;;8924744;40;10604;-58
2021/07/03 01:24:06;;;;;;;;;7.00;7.00;;;;;;;;8924052;40;11158;-57
2021/07/03 01:30:11;;;;;;;;;4.25;4.00;;;;;;;;8915821;40;10655;-57
2021/07/03 01:36:15;;;;;;;;;5.75;5.75;;;;;;;;8924398;40;10439;-57
2021/07/03 01:42:18;;;;;;;;;4.75;4.75;;;;;;;;8925071;39;10739;-56
2021/07/03 01:48:30;;;;;;;;;7.50;6.25;;;;;;;;8923035;40;10566;-57
2021/07/03 01:54:36;;;;;;;;;4.75;4.75;;;;;;;;8923742;40;10634;-56
2021/07/03 02:00:40;;;;;;;;;5.00;5.00;;;;;;;;8924978;40;10456;-57
2021/07/03 02:06:51;;;;;;;;;4.00;4.00;;;;;;;;8922229;40;10519;-57
2021/07/03 02:12:57;;;;;;;;;5.25;5.25;;;;;;;;8914418;40;10517;-57
2021/07/03 02:19:06;;;;;;;;;7.00;7.00;;;;;;;;8922668;40;10496;-57
2021/07/03 02:25:12;;;;;;;;;3.25;3.25;;;;;;;;8913767;40;10416;-57
2021/07/03 02:31:16;;;;;;;;;5.67;5.67;;;;;;;;8923130;40;10301;-57
2021/07/03 02:37:24;;;;;;;;;6.25;5.00;;;;;;;;8923259;40;10566;-56
2021/07/03 02:43:26;;;;;;;;;6.50;6.50;;;;;;;;8922035;40;10526;-57
2021/07/03 02:49:32;;;;;;;;;5.75;5.75;;;;;;;;8913807;40;10566;-57
2021/07/03 02:55:35;;;;;;;;;8.50;7.00;;;;;;;;8921397;39;10863;-57
2021/07/03 03:01:38;;;;;;;;;5.00;5.00;;;;;;;;8913263;40;10418;-58
2021/07/03 03:07:44;;;;;;;;;6.75;6.00;;;;;;;;8914555;40;10755;-57
2021/07/03 03:13:47;;;;;;;;;8.00;8.00;;;;;;;;8922805;40;10664;-56
2021/07/03 03:19:52;;;;;;;;;8.50;8.50;;;;;;;;8923532;40;10705;-57
2021/07/03 03:25:54;;;;;;;;;7.75;7.75;;;;;;;;8922312;40;10624;-57
2021/07/03 03:31:58;;;;;;;;;4.75;4.75;;;;;;;;8930241;39;10446;-57
2021/07/03 03:38:03;;;;;;;;;8.00;8.00;;;;;;;;8930107;39;10727;-57
2021/07/03 03:44:07;;;;;;;;;7.75;7.75;;;;;;;;8922590;40;10799;-56
2021/07/03 03:50:11;;;;;;;;;9.00;8.25;;;;;;;;8921938;39;10509;-56
2021/07/03 03:56:13;;;;;;;;;9.50;9.50;;;;;;;;8914026;40;10445;-56
2021/07/03 04:02:22;;;;;;;;;9.50;9.25;;;;;;;;8923286;40;10508;-56
2021/07/03 04:08:24;;;;;;;;;10.25;8.75;;;;;;;;8931352;39;10485;-57
2021/07/03 04:14:26;;;;;;;;;12.25;11.25;;;;;;;;8926989;40;10648;-57
2021/07/03 04:20:29;;;;;;;;;12.00;10.75;;;;;;;;8925436;40;10614;-56
2021/07/03 04:26:31;;;;;;;;;11.75;10.75;;;;;;;;8925445;40;10718;-57
2021/07/03 04:32:34;;;;;;;;;10.75;10.50;;;;;;;;8925559;39;10427;-56
2021/07/03 04:38:37;;;;;;;;;11.75;11.75;;;;;;;;8925134;40;10730;-57
2021/07/03 04:44:42;;;;;;;;;13.25;11.75;;;;;;;;8917085;40;10554;-59
2021/07/03 04:50:43;;;;;;;;;12.00;11.75;;;;;;;;8925582;40;10421;-58
2021/07/03 04:56:45;;;;;;;;;13.00;13.00;;;;;;;;8924973;40;10471;-58
2021/07/03 05:02:47;;;;;;;;;10.75;10.75;;;;;;;;8925025;40;10597;-58
2021/07/03 05:08:49;;;;;;;;;10.25;10.25;;;;;;;;8924803;40;10377;-58
2021/07/03 05:14:51;;;;;;;;;13.50;13.50;;;;;;;;8925668;40;10465;-56
2021/07/03 05:20:54;;;;;;;;;9.25;9.25;;;;;;;;8924033;39;10417;-58
2021/07/03 05:26:56;;;;;;;;;13.75;11.50;;;;;;;;8924787;40;10621;-57
2021/07/03 05:32:57;;;;;;;;;15.00;12.00;;;;;;;;8924708;40;10799;-57
2021/07/03 05:39:03;;;;;;;;;15.25;14.25;;;;;;;;8925072;40;10525;-58
2021/07/03 05:45:06;;;;;;;;;12.75;12.00;;;;;;;;8915686;40;11017;-58
2021/07/03 05:51:09;;;;;;;;;17.33;16.00;;;;;;;;8914520;40;9759;-58
2021/07/03 05:57:11;;;;;;;;;12.33;12.00;;;;;;;;8923822;40;10250;-57
2021/07/03 06:03:13;;;;;;;;;13.33;12.67;;;;;;;;8924366;40;9964;-57
2021/07/03 06:09:15;;;;;;;;;14.33;13.00;;;;;;;;8923823;40;10255;-58
2021/07/03 06:15:17;;;;;;;;;13.33;13.00;;;;;;;;8924145;40;10420;-58
2021/07/03 06:21:19;;;;;;;;;9.67;9.67;;;;;;;;8914375;40;9788;-57
2021/07/03 06:27:21;;;;;;;;;12.00;12.00;;;;;;;;8924004;39;10281;-58
2021/07/03 06:33:23;;;;;;;;;10.33;10.33;;;;;;;;8923111;40;10627;-57
2021/07/03 06:39:25;;;;;;;;;11.67;10.33;;;;;;;;8930312;39;10338;-58
2021/07/03 06:45:27;;;;;;;;;11.00;11.00;;;;;;;;8924359;40;11201;-57
2021/07/03 06:51:29;;;;;;;;;11.25;9.75;;;;;;;;8922950;40;10546;-58
2021/07/03 06:57:31;;;;;;;;;12.75;11.25;;;;;;;;8923940;40;10716;-59
2021/07/03 07:03:33;;;;;;;;;4.25;4.25;;;;;;;;8924136;40;10594;-58
2021/07/03 07:09:36;;;;;;;;;8.75;8.75;;;;;;;;8923778;40;10965;-58
2021/07/03 07:15:38;;;;;;;;;9.50;9.50;;;;;;;;8923954;40;10480;-58
2021/07/03 07:21:40;;;;;;;;;8.00;7.50;;;;;;;;8922933;40;11320;-57
2021/07/03 07:27:42;;;;;;;;;7.75;7.25;;;;;;;;8922615;40;10323;-58
2021/07/03 07:33:44;;;;;;;;;6.00;6.00;;;;;;;;8923134;40;10832;-58
2021/07/03 07:39:47;;;;;;;;;5.50;4.50;;;;;;;;8923027;40;10773;-58
2021/07/03 07:45:49;;;;;;;;;8.00;8.00;;;;;;;;8921769;40;10214;-58
2021/07/03 07:51:51;;;;;;;;;5.50;4.75;;;;;;;;8901693;39;10903;-58
2021/07/03 07:57:54;;;;;;;;;6.00;5.25;;;;;;;;8921998;40;10186;-57
2021/07/03 08:03:56;;;;;;;;;3.25;3.25;;;;;;;;8922034;40;10129;-58
2021/07/03 08:09:59;;;;;;;;;4.00;4.00;;;;;;;;8921866;40;10135;-58
2021/07/03 08:16:01;;;;;;;;;3.75;3.75;;;;;;;;8912901;40;10414;-58
2021/07/03 08:22:03;;;;;;;;;6.00;6.00;;;;;;;;8922559;40;10221;-58
2021/07/03 08:28:05;;;;;;;;;5.00;5.00;;;;;;;;8921305;40;10646;-57
2021/07/03 08:34:07;;;;;;;;;8.50;8.50;;;;;;;;8921680;40;10174;-57
2021/07/03 08:40:10;;;;;;;;;6.50;6.50;;;;;;;;8921937;40;10155;-58
2021/07/03 08:46:12;;;;;;;;;4.00;4.00;;;;;;;;8921231;40;10222;-57
2021/07/03 08:52:14;;;;;;;;;5.50;5.00;;;;;;;;8921767;39;10299;-58
2021/07/03 08:58:16;;;;;;;;;9.00;7.25;;;;;;;;8923093;40;10310;-58
2021/07/03 09:04:19;;;;;;;;;7.00;5.50;;;;;;;;8923324;40;10679;-58
2021/07/03 09:10:22;;;;;;;;;7.75;7.00;;;;;;;;8924080;40;10221;-58
2021/07/03 09:16:32;;;;;;;;;6.00;6.00;;;;;;;;8923757;40;10174;-57
2021/07/03 09:22:35;;;;;;;;;7.00;7.00;;;;;;;;8925313;40;10139;-57
2021/07/03 09:28:44;;;;;;;;;6.75;6.75;;;;;;;;8924450;40;10197;-58
2021/07/03 09:34:45;;;;;;;;;7.00;7.00;;;;;;;;8923066;40;10170;-59
2021/07/03 09:40:47;;;;;;;;;6.00;5.00;;;;;;;;8922581;40;10456;-57
2021/07/03 09:46:52;;;;;;;;;5.00;5.00;;;;;;;;8922005;40;10121;-58
2021/07/03 09:52:59;;;;;;;;;7.75;7.75;;;;;;;;8922768;40;10143;-57
2021/07/03 09:59:02;;;;;;;;;8.50;8.25;;;;;;;;8922201;40;10750;-58
2021/07/03 10:05:05;;;;;;;;;8.00;7.00;;;;;;;;8922050;39;10301;-58
2021/07/03 10:11:10;;;;;;;;;5.25;5.25;;;;;;;;8921837;40;10213;-59
2021/07/03 10:17:22;;;;;;;;;7.00;6.00;;;;;;;;8923241;40;10393;-58
2021/07/03 10:23:34;;;;;;;;;5.75;5.75;;;;;;;;8923126;40;10243;-57
2021/07/03 10:29:40;;;;;;;;;9.00;9.00;;;;;;;;8921981;40;10178;-58
2021/07/03 10:35:55;;;;;;;;;12.00;10.75;;;;;;;;8922309;40;10400;-59
2021/07/03 10:41:57;;;;;;;;;11.75;10.75;;;;;;;;8920926;40;10307;-59
2021/07/03 10:47:59;;;;;;;;;7.25;6.75;;;;;;;;8922582;40;10333;-57
2021/07/03 10:54:09;;;;;;;;;11.25;9.00;;;;;;;;8921720;40;10400;-58
2021/07/03 11:00:12;;;;;;;;;7.75;7.25;;;;;;;;8922324;40;10243;-57
2021/07/03 11:06:19;;;;;;;;;5.00;5.00;;;;;;;;8921476;40;10132;-57
2021/07/03 11:12:27;;;;;;;;;6.50;6.25;;;;;;;;8921888;40;10210;-58
2021/07/03 11:18:31;;;;;;;;;7.50;7.50;;;;;;;;8920767;39;10085;-57
2021/07/03 11:24:47;;;;;;;;;12.00;11.00;;;;;;;;8920740;40;10478;-57
2021/07/03 11:30:57;;;;;;;;;10.75;9.75;;;;;;;;8921040;40;10414;-58
2021/07/03 11:36:59;;;;;;;;;6.75;6.75;;;;;;;;8921897;40;10187;-60
2021/07/03 11:43:04;;;;;;;;;10.25;9.75;;;;;;;;8920549;40;10165;-57
2021/07/03 11:49:09;;;;;;;;;9.00;9.00;;;;;;;;8920724;40;10210;-58
2021/07/03 11:55:12;;;;;;;;;13.00;13.00;;;;;;;;8920250;40;10438;-59
2021/07/03 12:01:17;;;;;;;;;11.50;8.50;;;;;;;;8920175;40;10183;-57
2021/07/03 12:07:21;;;;;;;;;10.25;10.25;;;;;;;;8910983;40;10202;-58
2021/07/03 12:13:25;;;;;;;;;10.50;10.50;;;;;;;;8920241;40;10194;-57
2021/07/03 12:19:27;;;;;;;;;14.50;12.75;;;;;;;;8920031;40;11077;-57
2021/07/03 12:25:32;;;;;;;;;9.00;9.00;;;;;;;;8920038;40;10128;-57
2021/07/03 12:31:45;;;;;;;;;19.75;18.75;;;;;;;;8924173;40;10178;-58
2021/07/03 12:37:58;;;;;;;;;12.75;10.00;;;;;;;;8923269;40;10222;-59
2021/07/03 12:44:00;;;;;;;;;26.50;25.00;;;;;;;;8924463;40;10246;-58
2021/07/03 12:50:04;;;;;;;;;18.75;16.25;;;;;;;;8924487;40;10248;-59
2021/07/03 12:56:07;;;;;;;;;14.50;14.00;;;;;;;;8923095;40;10534;-57
2021/07/03 13:02:11;;;;;;;;;17.50;16.00;;;;;;;;8923770;40;10280;-57
2021/07/03 13:08:14;;;;;;;;;14.50;14.50;;;;;;;;8923227;40;10278;-58
2021/07/03 13:14:16;;;;;;;;;8.75;8.75;;;;;;;;8923989;40;10239;-58
2021/07/03 13:20:18;;;;;;;;;11.00;10.00;;;;;;;;8923550;40;10192;-58
2021/07/03 13:26:20;;;;;;;;;12.50;12.00;;;;;;;;8923247;40;10871;-57
2021/07/03 13:32:22;;;;;;;;;12.00;11.00;;;;;;;;8923411;40;10281;-59
2021/07/03 13:38:23;;;;;;;;;13.25;12.00;;;;;;;;8922735;39;10282;-58
2021/07/03 13:44:25;;;;;;;;;8.50;8.50;;;;;;;;8923886;40;10114;-57
2021/07/03 13:50:27;;;;;;;;;8.75;8.00;;;;;;;;8922518;40;10892;-62
2021/07/03 13:56:29;;;;;;;;;10.25;8.00;;;;;;;;8920539;40;10274;-57
2021/07/03 14:02:31;;;;;;;;;7.00;7.00;;;;;;;;8922616;40;10175;-58
2021/07/03 14:08:34;;;;;;;;;6.00;6.00;;;;;;;;8922109;40;10130;-58
2021/07/03 14:14:36;;;;;;;;;7.00;7.00;;;;;;;;8922116;40;10103;-58
2021/07/03 14:20:38;;;;;;;;;6.50;6.50;;;;;;;;8923110;40;10404;-60
2021/07/03 14:26:40;;;;;;;;;8.25;8.25;;;;;;;;8913027;40;10199;-58
2021/07/03 14:32:42;;;;;;;;;1.00;1.00;;;;;;;;8923461;40;10690;-58
2021/07/03 14:38:45;;;;;;;;;5.50;5.25;;;;;;;;8922033;40;10429;-58
2021/07/03 14:44:47;;;;;;;;;4.75;4.75;;;;;;;;8922880;40;10241;-58
2021/07/03 14:50:49;;;;;;;;;5.00;5.00;;;;;;;;8922326;39;10409;-58
2021/07/03 14:56:54;;;;;;;;;5.25;5.00;;;;;;;;8921483;40;10201;-57
2021/07/03 15:02:56;;;;;;;;;5.25;5.25;;;;;;;;8921410;40;10378;-59
2021/07/03 15:08:58;;;;;;;;;8.75;7.00;;;;;;;;8912165;40;10532;-59
2021/07/03 15:15:00;;;;;;;;;9.00;9.00;;;;;;;;8922591;40;10358;-59
2021/07/03 15:21:02;;;;;;;;;8.67;8.00;;;;;;;;8922512;40;10496;-58
2021/07/03 15:27:04;;;;;;;;;6.25;6.25;;;;;;;;8922058;40;10531;-58
2021/07/03 15:33:06;;;;;;;;;10.00;9.50;;;;;;;;8922118;40;10506;-58
2021/07/03 15:39:08;;;;;;;;;8.75;7.25;;;;;;;;8912441;40;10870;-58
2021/07/03 15:45:10;;;;;;;;;7.25;7.25;;;;;;;;8921293;40;11120;-57
2021/07/03 15:51:12;;;;;;;;;11.75;11.00;;;;;;;;8921925;40;10210;-59
2021/07/03 15:57:14;;;;;;;;;12.25;12.25;;;;;;;;8920577;40;10532;-58
2021/07/03 16:03:16;;;;;;;;;17.25;16.00;;;;;;;;8920567;40;10257;-58
2021/07/03 16:09:18;;;;;;;;;9.00;8.00;;;;;;;;8920178;40;10861;-57
2021/07/03 16:15:20;;;;;;;;;6.75;5.25;;;;;;;;8919767;40;10192;-58
2021/07/03 16:21:22;;;;;;;;;12.50;10.75;;;;;;;;8920406;40;10279;-59
2021/07/03 16:27:25;;;;;;;;;10.50;9.25;;;;;;;;8919821;40;10279;-58
2021/07/03 16:33:27;;;;;;;;;12.25;11.25;;;;;;;;8920025;40;10231;-58
2021/07/03 16:39:29;;;;;;;;;10.75;10.75;;;;;;;;8919934;40;10278;-57
2021/07/03 16:45:31;;;;;;;;;8.00;8.00;;;;;;;;8918966;40;10236;-58
2021/07/03 16:51:33;;;;;;;;;7.25;6.50;;;;;;;;8920538;40;10746;-59
2021/07/03 16:57:35;;;;;;;;;8.00;8.00;;;;;;;;8919820;40;10175;-58
2021/07/03 17:03:37;;;;;;;;;6.25;6.25;;;;;;;;8918731;40;10199;-57
2021/07/03 17:09:39;;;;;;;;;9.25;8.25;;;;;;;;8918586;40;10168;-58
2021/07/03 17:15:41;;;;;;;;;6.00;6.00;;;;;;;;8920803;39;10167;-58
2021/07/03 17:21:43;;;;;;;;;8.75;8.75;;;;;;;;8922779;40;10216;-58
2021/07/03 17:27:45;;;;;;;;;8.50;8.50;;;;;;;;8923471;40;10303;-59
2021/07/03 17:33:47;;;;;;;;;7.75;7.75;;;;;;;;8923111;40;10136;-58
2021/07/03 17:39:49;;;;;;;;;6.50;6.50;;;;;;;;8922898;40;10146;-59
2021/07/03 17:45:51;;;;;;;;;6.25;6.25;;;;;;;;8923031;40;10931;-57
2021/07/03 17:51:53;;;;;;;;;8.50;8.50;;;;;;;;8893757;40;10197;-58
2021/07/03 17:57:55;;;;;;;;;7.75;7.75;;;;;;;;8922099;40;10326;-58
2021/07/03 18:03:59;;;;;;;;;8.75;7.25;;;;;;;;8922292;40;10190;-58
2021/07/03 18:10:03;;;;;;;;;8.25;6.75;;;;;;;;8922389;40;10314;-61
2021/07/03 18:16:05;;;;;;;;;8.25;8.25;;;;;;;;8921594;40;10461;-61
2021/07/03 18:22:07;;;;;;;;;7.75;7.75;;;;;;;;8922546;40;10337;-58
2021/07/03 18:28:09;;;;;;;;;12.50;12.50;;;;;;;;8921098;39;10658;-57
2021/07/03 18:34:11;;;;;;;;;8.75;7.75;;;;;;;;8921569;40;10329;-58
2021/07/03 18:40:15;;;;;;;;;7.75;7.75;;;;;;;;8922563;40;10317;-57
2021/07/03 18:46:17;;;;;;;;;17.25;16.25;;;;;;;;8921387;40;10395;-57
2021/07/03 18:52:19;;;;;;;;;27.33;26.33;;;;;;;;8897713;40;10181;-58
2021/07/03 18:58:21;;;;;;;;;25.75;21.50;;;;;;;;8897129;40;10725;-57
2021/07/03 19:04:23;;;;;;;;;21.50;18.00;;;;;;;;8897322;40;10687;-58
2021/07/03 19:10:26;;;;;;;;;13.75;13.00;;;;;;;;8897090;40;10607;-58
2021/07/03 19:16:28;;;;;;;;;14.75;14.75;;;;;;;;8895885;40;10737;-58
2021/07/03 19:22:30;;;;;;;;;12.50;12.50;;;;;;;;8896035;40;10608;-58
2021/07/03 19:28:33;;;;;;;;;14.25;13.50;;;;;;;;8895680;40;10445;-57
2021/07/03 19:34:35;;;;;;;;;12.75;12.25;;;;;;;;8895203;40;10937;-58
2021/07/03 19:40:37;;;;;;;;;13.50;13.50;;;;;;;;8895820;40;10652;-58
2021/07/03 19:46:39;;;;;;;;;14.00;14.00;;;;;;;;8895569;40;10779;-59
2021/07/03 19:52:44;;;;;;;;;11.75;11.75;;;;;;;;8897491;40;10576;-58
2021/07/03 19:58:46;;;;;;;;;15.00;15.00;;;;;;;;8895368;40;10629;-57
2021/07/03 20:04:48;;;;;;;;;14.00;13.00;;;;;;;;8896137;40;11290;-58
2021/07/03 20:10:50;;;;;;;;;14.00;10.75;;;;;;;;8895156;40;11108;-57
2021/07/03 20:16:54;;;;;;;;;10.75;10.75;;;;;;;;8894920;40;10511;-60
2021/07/03 20:22:56;;;;;;;;;12.50;10.25;;;;;;;;8895174;40;11193;-58
2021/07/03 20:28:59;;;;;;;;;9.00;9.00;;;;;;;;8894934;40;11432;-58
2021/07/03 20:35:01;;;;;;;;;7.75;7.75;;;;;;;;8895268;40;10657;-57
2021/07/03 20:41:03;;;;;;;;;6.75;6.00;;;;;;;;8895032;40;11199;-58
2021/07/03 20:47:06;;;;;;;;;1.50;1.25;;;;;;;;8895732;40;10485;-57
2021/07/03 20:53:08;;;;;;;;;4.00;4.00;;;;;;;;8906485;40;10575;-58
2021/07/03 20:59:10;;;;;;;;;5.25;4.00;;;;;;;;8923272;40;10559;-59
2021/07/03 21:05:14;;;;;;;;;5.50;5.00;;;;;;;;8923075;40;10751;-57
2021/07/03 21:11:17;;;;;;;;;3.50;3.50;;;;;;;;8923352;40;10489;-57
2021/07/03 21:17:19;;;;;;;;;4.50;4.50;;;;;;;;8923902;40;10503;-58
2021/07/03 21:23:21;;;;;;;;;3.00;3.00;;;;;;;;8924535;40;10424;-58
2021/07/03 21:29:23;;;;;;;;;3.50;3.25;;;;;;;;8922836;40;10568;-57
2021/07/03 21:35:25;;;;;;;;;3.25;3.00;;;;;;;;8922688;40;10505;-58
2021/07/03 21:41:27;;;;;;;;;3.00;3.00;;;;;;;;8922297;40;10448;-57
2021/07/03 21:47:29;;;;;;;;;4.50;4.50;;;;;;;;8923087;39;11142;-57
2021/07/03 21:53:35;;;;;;;;;5.00;4.00;;;;;;;;8923495;40;10511;-58
2021/07/03 21:59:37;;;;;;;;;3.75;3.75;;;;;;;;8922901;39;10597;-58
2021/07/03 22:05:41;;;;;;;;;3.00;2.00;;;;;;;;8924294;40;11372;-58
2021/07/03 22:11:43;;;;;;;;;4.00;4.00;;;;;;;;8921910;40;10675;-58
2021/07/03 22:17:46;;;;;;;;;5.50;5.00;;;;;;;;8922627;40;11222;-58
2021/07/03 22:23:53;;;;;;;;;6.50;6.50;;;;;;;;8922279;40;10808;-57
2021/07/03 22:29:55;;;;;;;;;11.25;5.25;;;;;;;;8921765;40;10719;-58
2021/07/03 22:35:57;;;;;;;;;8.00;6.25;;;;;;;;8922317;40;10466;-58
2021/07/03 22:41:59;;;;;;;;;6.67;6.33;;;;;;;;8921713;40;9945;-58
2021/07/03 22:48:01;;;;;;;;;6.33;6.00;;;;;;;;8921701;39;9864;-58
2021/07/03 22:54:03;;;;;;;;;6.67;6.67;;;;;;;;8922231;40;10239;-57
2021/07/03 23:00:29;;;;;;;;;6.00;6.00;;;;;;;;8921445;40;10266;-60
2021/07/03 23:06:33;;;;;;;;;7.67;5.67;;;;;;;;8912074;40;10408;-58
2021/07/03 23:12:35;;;;;;;;;3.00;3.00;;;;;;;;8920931;39;10559;-58
2021/07/03 23:18:37;;;;;;;;;6.33;5.00;;;;;;;;8921749;40;9728;-58
2021/07/03 23:24:39;;;;;;;;;8.33;6.67;;;;;;;;8920907;40;10353;-58
2021/07/03 23:30:43;;;;;;;;;8.00;8.00;;;;;;;;8921601;40;9740;-57
2021/07/03 23:36:45;;;;;;;;;10.00;10.00;;;;;;;;8920889;40;9994;-58
2021/07/03 23:42:47;;;;;;;;;10.67;9.33;;;;;;;;8920480;40;10010;-57
2021/07/03 23:48:49;;;;;;;;;11.00;10.67;;;;;;;;8921012;40;10267;-58
2021/07/03 23:54:51;;;;;;;;;11.67;10.00;;;;;;;;8911762;40;9737;-57
